Time;durP1;ratioP1;P1;durP2;ratioP2;P2;SDS_P1;SDS_P2;PMS_P1;PMS_P2;Temp;Humidity;BMP_temperature;BMP_pressure;BME280_temperature;BME280_humidity;BME280_pressure;Samples;Min_cycle;Max_cycle;Signal;HPM_P1;HPM_P2
2023/12/09 00:00:09;;;;;;;0.10;0.10;;;8.00;99.90;;;;;;5021167;28;20112;-83
2023/12/09 00:02:35;;;;;;;0.23;0.23;;;8.00;99.90;;;;;;5025070;28;20041;-82
2023/12/09 00:05:02;;;;;;;0.10;0.10;;;8.00;99.90;;;;;;5025588;28;20374;-81
2023/12/09 00:07:27;;;;;;;0.10;0.10;;;7.90;99.90;;;;;;5025136;28;20028;-83
2023/12/09 00:09:53;;;;;;;0.10;0.10;;;7.90;99.90;;;;;;5023953;28;20037;-83
2023/12/09 00:12:19;;;;;;;0.10;0.10;;;8.00;99.90;;;;;;5024446;28;20102;-83
2023/12/09 00:14:44;;;;;;;0.10;0.10;;;7.90;99.90;;;;;;5022396;28;20036;-81
2023/12/09 00:17:10;;;;;;;0.10;0.10;;;7.90;99.90;;;;;;5025189;28;20045;-83
2023/12/09 00:19:36;;;;;;;0.10;0.10;;;7.90;99.90;;;;;;5024743;28;20519;-82
2023/12/09 00:22:02;;;;;;;0.10;0.10;;;7.90;99.90;;;;;;5024171;28;20091;-84
2023/12/09 00:24:27;;;;;;;0.20;0.20;;;7.80;99.90;;;;;;5014651;28;20037;-84
2023/12/09 00:26:53;;;;;;;0.10;0.10;;;7.80;99.90;;;;;;5027337;28;20037;-84
2023/12/09 00:29:19;;;;;;;0.35;0.35;;;7.90;99.90;;;;;;5023938;28;20065;-84
2023/12/09 00:31:45;;;;;;;0.10;0.10;;;7.90;99.90;;;;;;5024419;28;20116;-82
2023/12/09 00:34:10;;;;;;;0.15;0.15;;;7.90;99.90;;;;;;5021007;28;20055;-83
2023/12/09 00:36:36;;;;;;;2.25;2.10;;;7.90;99.90;;;;;;5015455;28;20040;-83
2023/12/09 00:39:02;;;;;;;0.77;0.77;;;7.90;99.90;;;;;;5024644;28;20072;-83
2023/12/09 00:41:27;;;;;;;0.17;0.17;;;7.90;99.90;;;;;;5024897;28;20583;-83
2023/12/09 00:43:53;;;;;;;0.40;0.40;;;7.80;99.90;;;;;;5018611;28;20033;-83
2023/12/09 00:46:21;;;;;;;0.40;0.40;;;7.90;99.90;;;;;;5024679;28;20033;-83
2023/12/09 00:48:46;;;;;;;0.10;0.10;;;7.90;99.90;;;;;;5024855;28;20045;-84
2023/12/09 00:51:13;;;;;;;0.00;0.00;;;7.90;99.90;;;;;;5018879;28;20080;-84
2023/12/09 00:53:39;;;;;;;0.10;0.10;;;7.90;99.90;;;;;;5024797;28;20477;-81
2023/12/09 00:56:05;;;;;;;0.10;0.10;;;7.90;99.90;;;;;;5021895;28;20025;-82
2023/12/09 00:58:31;;;;;;;1.67;1.50;;;7.90;99.90;;;;;;5016771;28;20060;-85
2023/12/09 01:00:56;;;;;;;0.20;0.20;;;7.90;99.90;;;;;;5020318;28;20029;-84
2023/12/09 01:03:22;;;;;;;0.17;0.17;;;7.80;99.90;;;;;;5012681;28;20025;-83
2023/12/09 01:05:48;;;;;;;0.10;0.10;;;7.80;99.90;;;;;;5019522;28;20029;-84
2023/12/09 01:08:13;;;;;;;0.10;0.10;;;7.80;99.90;;;;;;5017123;28;20033;-83
2023/12/09 01:10:39;;;;;;;0.40;0.40;;;7.90;99.90;;;;;;5012728;28;20029;-82
2023/12/09 01:13:05;;;;;;;0.10;0.10;;;7.80;99.90;;;;;;5017065;28;20091;-81
2023/12/09 01:15:31;;;;;;;1.50;1.20;;;7.80;99.90;;;;;;5018916;28;20044;-82
2023/12/09 01:17:57;;;;;;;0.00;0.00;;;7.80;99.90;;;;;;5013754;28;20671;-83
2023/12/09 01:20:24;;;;;;;0.73;0.63;;;7.80;99.90;;;;;;5010697;28;20040;-82
2023/12/09 01:22:50;;;;;;;0.10;0.10;;;7.90;99.90;;;;;;5024645;28;20404;-81
2023/12/09 01:25:15;;;;;;;0.10;0.10;;;7.90;99.90;;;;;;5023377;28;20028;-81
2023/12/09 01:27:41;;;;;;;0.10;0.10;;;7.90;99.90;;;;;;5024116;28;20037;-83
2023/12/09 01:30:07;;;;;;;0.10;0.10;;;7.90;99.90;;;;;;5022221;28;20067;-84
2023/12/09 01:32:33;;;;;;;0.10;0.10;;;7.90;99.90;;;;;;5023965;28;20030;-84
2023/12/09 01:34:59;;;;;;;0.10;0.10;;;7.80;99.90;;;;;;5016741;28;20257;-83
2023/12/09 01:37:24;;;;;;;0.10;0.10;;;7.70;99.90;;;;;;5018310;28;20029;-81
2023/12/09 01:39:50;;;;;;;0.10;0.10;;;7.60;99.90;;;;;;5017990;28;20034;-82
2023/12/09 01:42:16;;;;;;;0.10;0.10;;;7.60;99.90;;;;;;5015919;28;20436;-82
2023/12/09 01:44:41;;;;;;;0.10;0.10;;;7.60;99.90;;;;;;5016671;28;20032;-82
2023/12/09 01:47:07;;;;;;;0.10;0.10;;;7.70;99.90;;;;;;5023228;28;20045;-81
2023/12/09 01:49:33;;;;;;;0.30;0.30;;;7.80;99.90;;;;;;5024173;28;20032;-82
2023/12/09 01:52:01;;;;;;;0.10;0.10;;;7.70;99.90;;;;;;5017555;28;20021;-82
2023/12/09 01:54:28;;;;;;;0.10;0.10;;;7.70;99.90;;;;;;5011536;28;20041;-82
2023/12/09 01:56:55;;;;;;;0.10;0.10;;;7.70;99.90;;;;;;5022774;28;20029;-81
2023/12/09 01:59:21;;;;;;;0.10;0.10;;;7.60;99.90;;;;;;5018618;28;20492;-81
2023/12/09 02:01:49;;;;;;;0.10;0.10;;;7.70;99.90;;;;;;5012983;28;20057;-81
2023/12/09 02:04:16;;;;;;;0.10;0.10;;;7.50;99.90;;;;;;5022195;28;21016;-81
2023/12/09 02:06:41;;;;;;;0.10;0.10;;;7.50;99.90;;;;;;5011849;28;20044;-82
2023/12/09 02:09:07;;;;;;;0.10;0.10;;;7.50;99.90;;;;;;5023455;28;20033;-84
2023/12/09 02:11:49;;;;;;;0.10;0.10;;;7.50;99.90;;;;;;5013350;28;20072;-84
2023/12/09 02:14:20;;;;;;;0.10;0.10;;;7.50;99.90;;;;;;5020794;28;20855;-82
2023/12/09 02:16:51;;;;;;;0.10;0.10;;;7.60;99.90;;;;;;5017857;28;20033;-82
2023/12/09 02:19:17;;;;;;;0.10;0.10;;;7.70;99.90;;;;;;5011884;28;20422;-84
2023/12/09 02:22:04;;;;;;;0.10;0.10;;;7.60;99.90;;;;;;5023077;28;20031;-85
2023/12/09 02:24:30;;;;;;;0.10;0.10;;;7.70;99.90;;;;;;5023874;28;20033;-82
2023/12/09 02:27:11;;;;;;;0.10;0.10;;;7.60;99.90;;;;;;5014011;28;20030;-83
2023/12/09 02:29:49;;;;;;;0.10;0.10;;;7.50;99.90;;;;;;5009662;28;20350;-82
2023/12/09 02:32:19;;;;;;;0.10;0.10;;;7.60;99.90;;;;;;5012024;28;20060;-83
2023/12/09 02:34:47;;;;;;;0.10;0.10;;;7.70;99.90;;;;;;5022790;28;20084;-82
2023/12/09 02:37:15;;;;;;;0.10;0.10;;;7.70;99.90;;;;;;5023303;28;20037;-82
2023/12/09 02:39:42;;;;;;;0.00;0.00;;;7.70;99.90;;;;;;5014425;28;20022;-82
2023/12/09 02:42:10;;;;;;;0.55;0.52;;;7.60;99.90;;;;;;5014729;28;20028;-83
2023/12/09 02:44:36;;;;;;;0.10;0.10;;;7.60;99.90;;;;;;5015476;28;20021;-80
2023/12/09 02:47:02;;;;;;;0.00;0.00;;;7.70;99.90;;;;;;5023256;28;20409;-81
2023/12/09 02:49:28;;;;;;;0.10;0.10;;;7.60;99.90;;;;;;5022690;28;20037;-81
2023/12/09 02:51:53;;;;;;;0.43;0.43;;;7.70;99.90;;;;;;5015654;28;20091;-81
2023/12/09 02:54:19;;;;;;;0.10;0.10;;;7.70;99.90;;;;;;5022387;28;20105;-83
2023/12/09 02:56:45;;;;;;;0.00;0.00;;;7.70;99.90;;;;;;5022736;28;20532;-83
2023/12/09 02:59:11;;;;;;;0.10;0.10;;;7.70;99.90;;;;;;5014717;28;20572;-83
2023/12/09 03:01:36;;;;;;;5.60;2.17;;;7.70;99.90;;;;;;5022475;28;20037;-82
2023/12/09 03:04:02;;;;;;;0.10;0.10;;;7.70;99.90;;;;;;5017030;28;20026;-84
2023/12/09 03:06:28;;;;;;;0.10;0.10;;;7.80;99.90;;;;;;5010605;28;20038;-84
2023/12/09 03:08:54;;;;;;;0.00;0.00;;;7.70;99.90;;;;;;5014688;28;20122;-82
2023/12/09 03:11:19;;;;;;;0.00;0.00;;;7.70;99.90;;;;;;5019225;28;20489;-82
2023/12/09 03:13:45;;;;;;;0.03;0.03;;;7.70;99.90;;;;;;5015934;28;20030;-82
2023/12/09 03:16:11;;;;;;;0.10;0.10;;;7.80;99.90;;;;;;5009857;28;20030;-84
2023/12/09 03:18:36;;;;;;;0.10;0.10;;;7.80;99.90;;;;;;5010356;28;20481;-82
2023/12/09 03:21:03;;;;;;;0.10;0.10;;;7.70;99.90;;;;;;5011262;28;20037;-81
2023/12/09 03:23:29;;;;;;;0.10;0.10;;;7.70;99.90;;;;;;5006993;28;20093;-84
2023/12/09 03:25:54;;;;;;;0.10;0.10;;;7.60;99.90;;;;;;5017431;28;20039;-82
2023/12/09 03:28:20;;;;;;;0.20;0.20;;;7.60;99.90;;;;;;5021021;28;20029;-82
2023/12/09 03:30:46;;;;;;;0.10;0.10;;;7.70;99.90;;;;;;5019580;28;20140;-83
2023/12/09 03:33:12;;;;;;;0.10;0.10;;;7.70;99.90;;;;;;5021821;28;20048;-83
2023/12/09 03:35:37;;;;;;;0.10;0.10;;;7.80;99.90;;;;;;5022046;28;20264;-85
2023/12/09 03:38:04;;;;;;;3.67;3.42;;;7.80;99.90;;;;;;5014142;28;20749;-83
2023/12/09 03:40:29;;;;;;;0.10;0.10;;;7.70;99.90;;;;;;5014250;28;20024;-84
2023/12/09 03:42:55;;;;;;;0.10;0.10;;;7.70;99.90;;;;;;5021869;28;20256;-83
2023/12/09 03:45:21;;;;;;;0.10;0.10;;;7.70;99.90;;;;;;5015167;28;20579;-83
2023/12/09 03:47:47;;;;;;;0.00;0.00;;;7.70;99.90;;;;;;5021818;28;20118;-84
2023/12/09 03:50:13;;;;;;;0.10;0.10;;;7.80;99.90;;;;;;5022513;28;20115;-86
2023/12/09 03:52:38;;;;;;;0.15;0.15;;;7.80;99.90;;;;;;5021354;28;20036;-83
2023/12/09 03:55:04;;;;;;;0.00;0.00;;;7.80;99.90;;;;;;5021481;28;20025;-82
2023/12/09 03:57:30;;;;;;;0.00;0.00;;;7.80;99.90;;;;;;5013911;28;20045;-83
2023/12/09 03:59:56;;;;;;;0.10;0.10;;;7.80;99.90;;;;;;5020016;28;20049;-82
2023/12/09 04:02:22;;;;;;;0.10;0.10;;;7.80;99.90;;;;;;5014645;28;20048;-82
2023/12/09 04:04:47;;;;;;;0.00;0.00;;;7.80;99.90;;;;;;5019520;28;20567;-82
2023/12/09 04:07:13;;;;;;;0.00;0.00;;;7.80;99.90;;;;;;5021460;28;20431;-82
2023/12/09 04:09:39;;;;;;;0.10;0.10;;;7.70;99.90;;;;;;5019269;28;20029;-83
2023/12/09 04:12:05;;;;;;;0.10;0.10;;;7.80;99.90;;;;;;5013156;28;20048;-81
2023/12/09 04:14:30;;;;;;;0.00;0.00;;;7.80;99.90;;;;;;5009831;28;20029;-81
2023/12/09 04:16:56;;;;;;;0.10;0.10;;;7.80;99.90;;;;;;5014118;28;20106;-83
2023/12/09 04:19:22;;;;;;;0.10;0.10;;;7.80;99.90;;;;;;5017776;28;20147;-83
2023/12/09 04:21:47;;;;;;;0.40;0.40;;;7.80;99.90;;;;;;5013261;28;20033;-83
2023/12/09 04:24:13;;;;;;;0.05;0.05;;;7.70;99.90;;;;;;5021884;28;20021;-83
2023/12/09 04:26:39;;;;;;;0.10;0.10;;;7.80;99.90;;;;;;5017402;28;20044;-83
2023/12/09 04:29:06;;;;;;;0.00;0.00;;;7.70;99.90;;;;;;5016183;28;20041;-83
2023/12/09 04:31:32;;;;;;;0.10;0.10;;;7.70;99.90;;;;;;5023792;28;20029;-81
2023/12/09 04:33:58;;;;;;;0.10;0.10;;;7.70;99.90;;;;;;5025864;28;20034;-81
2023/12/09 04:36:24;;;;;;;0.10;0.10;;;7.80;99.90;;;;;;5019689;28;20029;-81
2023/12/09 04:38:49;;;;;;;0.10;0.10;;;7.80;99.90;;;;;;5022646;28;20080;-81
2023/12/09 04:41:15;;;;;;;0.10;0.10;;;7.70;99.90;;;;;;5015037;28;20468;-82
2023/12/09 04:43:41;;;;;;;0.10;0.10;;;7.80;99.90;;;;;;5017321;28;20041;-82
2023/12/09 04:46:07;;;;;;;0.10;0.10;;;7.80;99.90;;;;;;5018517;28;20093;-81
2023/12/09 04:48:33;;;;;;;0.10;0.10;;;7.80;99.90;;;;;;5023556;28;20580;-83
2023/12/09 04:50:59;;;;;;;0.07;0.07;;;7.80;99.90;;;;;;5020412;28;20100;-83
2023/12/09 04:53:24;;;;;;;0.10;0.10;;;7.80;99.90;;;;;;5023709;28;20127;-83
2023/12/09 04:55:50;;;;;;;0.00;0.00;;;7.80;99.90;;;;;;5024234;28;20025;-83
2023/12/09 04:58:16;;;;;;;0.00;0.00;;;7.80;99.90;;;;;;5024967;28;20778;-82
2023/12/09 05:00:41;;;;;;;0.03;0.03;;;7.80;99.90;;;;;;5024757;28;20032;-83
2023/12/09 05:03:07;;;;;;;0.10;0.10;;;7.80;99.90;;;;;;5020041;28;20051;-83
2023/12/09 05:05:33;;;;;;;0.10;0.10;;;7.70;99.90;;;;;;5024244;28;20171;-83
2023/12/09 05:07:58;;;;;;;0.10;0.10;;;7.70;99.90;;;;;;5018268;28;20030;-83
2023/12/09 05:10:24;;;;;;;0.27;0.27;;;7.80;99.90;;;;;;5025731;28;20076;-83
2023/12/09 05:12:50;;;;;;;0.10;0.10;;;7.80;99.90;;;;;;5016342;28;20099;-82
2023/12/09 05:15:16;;;;;;;0.10;0.10;;;7.80;99.90;;;;;;5016193;28;20036;-81
2023/12/09 05:17:41;;;;;;;0.22;0.22;;;7.70;99.90;;;;;;5020889;28;20061;-81
2023/12/09 05:20:09;;;;;;;0.10;0.10;;;7.70;99.90;;;;;;5017375;28;20022;-81
2023/12/09 05:22:35;;;;;;;0.10;0.10;;;7.50;99.90;;;;;;5011056;28;20544;-81
2023/12/09 05:25:02;;;;;;;0.10;0.10;;;7.60;99.90;;;;;;5023357;28;20068;-80
2023/12/09 05:27:28;;;;;;;0.10;0.10;;;7.60;99.90;;;;;;5017210;28;20033;-81
2023/12/09 05:29:53;;;;;;;0.10;0.10;;;7.60;99.90;;;;;;5023602;28;20041;-81
2023/12/09 05:32:19;;;;;;;0.10;0.10;;;7.50;99.90;;;;;;5024362;28;20543;-81
2023/12/09 05:34:44;;;;;;;0.08;0.08;;;7.50;99.90;;;;;;5017512;28;20123;-81
2023/12/09 05:37:10;;;;;;;0.10;0.10;;;7.60;99.90;;;;;;5024909;28;20103;-82
2023/12/09 05:39:36;;;;;;;0.00;0.00;;;7.60;99.90;;;;;;5023642;28;20036;-83
2023/12/09 05:42:02;;;;;;;0.10;0.10;;;7.60;99.90;;;;;;5023828;28;20049;-81
2023/12/09 05:44:27;;;;;;;0.10;0.10;;;7.50;99.90;;;;;;5019130;28;20026;-82
2023/12/09 05:46:53;;;;;;;0.08;0.08;;;7.60;99.90;;;;;;5022153;28;20095;-82
2023/12/09 05:49:19;;;;;;;0.10;0.10;;;7.60;99.90;;;;;;5019920;28;20026;-82
2023/12/09 05:51:45;;;;;;;0.10;0.10;;;7.70;99.90;;;;;;5016091;28;20033;-82
2023/12/09 05:54:10;;;;;;;0.20;0.20;;;7.70;99.90;;;;;;5019142;28;20033;-82
2023/12/09 05:56:36;;;;;;;0.10;0.10;;;7.60;99.90;;;;;;5018132;28;20590;-82
2023/12/09 05:59:02;;;;;;;0.10;0.10;;;7.60;99.90;;;;;;5022111;28;20057;-82
2023/12/09 06:01:28;;;;;;;2.45;1.45;;;7.70;99.90;;;;;;5019618;28;20047;-82
2023/12/09 06:03:53;;;;;;;0.10;0.10;;;7.60;99.90;;;;;;5022167;28;20145;-81
2023/12/09 06:06:19;;;;;;;0.10;0.10;;;7.60;99.90;;;;;;5020903;28;20107;-82
2023/12/09 06:08:45;;;;;;;0.08;0.08;;;7.70;99.90;;;;;;5020646;28;20033;-81
2023/12/09 06:11:10;;;;;;;0.00;0.00;;;7.70;99.90;;;;;;5011061;28;20524;-82
2023/12/09 06:13:36;;;;;;;0.10;0.10;;;7.70;99.90;;;;;;5015107;28;20021;-81
2023/12/09 06:16:02;;;;;;;0.10;0.10;;;7.70;99.90;;;;;;5013247;28;20068;-82
2023/12/09 06:18:28;;;;;;;0.00;0.00;;;7.70;99.90;;;;;;5018348;28;20575;-81
2023/12/09 06:20:53;;;;;;;0.10;0.10;;;7.70;99.90;;;;;;5022765;28;20041;-82
2023/12/09 06:23:19;;;;;;;0.10;0.10;;;7.80;99.90;;;;;;5023026;28;20056;-81
2023/12/09 06:25:45;;;;;;;0.10;0.10;;;7.70;99.90;;;;;;5022399;28;20487;-80
2023/12/09 06:28:11;;;;;;;0.00;0.00;;;7.70;99.90;;;;;;5020623;28;20837;-80
2023/12/09 06:30:36;;;;;;;0.10;0.10;;;7.70;99.90;;;;;;5022497;28;20025;-81
2023/12/09 06:33:02;;;;;;;0.20;0.20;;;7.60;99.90;;;;;;5012037;28;20034;-82
2023/12/09 06:35:28;;;;;;;0.10;0.10;;;7.60;99.90;;;;;;5009603;28;20034;-82
2023/12/09 06:37:54;;;;;;;0.10;0.10;;;7.70;99.90;;;;;;5023193;28;20056;-82
2023/12/09 06:40:21;;;;;;;0.10;0.10;;;7.60;99.90;;;;;;5022471;28;20037;-82
2023/12/09 06:42:47;;;;;;;0.00;0.00;;;7.50;99.90;;;;;;5022840;28;20038;-83
2023/12/09 06:45:13;;;;;;;0.10;0.10;;;7.50;99.90;;;;;;5014456;28;20110;-83
2023/12/09 06:47:38;;;;;;;0.10;0.10;;;7.50;99.90;;;;;;5022812;28;20119;-83
2023/12/09 06:50:06;;;;;;;0.47;0.47;;;7.60;99.90;;;;;;5016184;28;20422;-82
2023/12/09 06:52:31;;;;;;;0.10;0.10;;;7.60;99.90;;;;;;5022708;28;20468;-81
2023/12/09 06:54:57;;;;;;;0.05;0.05;;;7.60;99.90;;;;;;5019502;28;20034;-81
2023/12/09 06:57:23;;;;;;;0.10;0.10;;;7.70;99.90;;;;;;5019624;28;20413;-81
2023/12/09 06:59:48;;;;;;;0.10;0.10;;;7.60;99.90;;;;;;5017412;28;20056;-80
2023/12/09 07:02:14;;;;;;;0.20;0.20;;;7.60;99.90;;;;;;5018488;28;20145;-81
2023/12/09 07:04:40;;;;;;;0.10;0.10;;;7.60;99.90;;;;;;5015652;28;20564;-81
2023/12/09 07:07:06;;;;;;;0.10;0.10;;;7.60;99.90;;;;;;5004217;28;20069;-80
2023/12/09 07:09:31;;;;;;;0.00;0.00;;;7.70;99.90;;;;;;5017650;28;20095;-82
2023/12/09 07:11:57;;;;;;;0.10;0.10;;;7.60;99.90;;;;;;5014979;28;20022;-81
2023/12/09 07:14:23;;;;;;;0.10;0.10;;;7.60;99.90;;;;;;5021773;28;20048;-83
2023/12/09 07:16:49;;;;;;;0.30;0.30;;;7.60;99.90;;;;;;5022353;28;20029;-84
2023/12/09 07:19:14;;;;;;;0.00;0.00;;;7.70;99.90;;;;;;5019755;28;20033;-83
2023/12/09 07:21:40;;;;;;;0.10;0.10;;;7.60;99.90;;;;;;5011288;28;20033;-81
2023/12/09 07:24:06;;;;;;;0.10;0.10;;;7.60;99.90;;;;;;5018989;28;20684;-81
2023/12/09 07:26:31;;;;;;;0.10;0.10;;;7.60;99.90;;;;;;5023329;28;20065;-82
2023/12/09 07:28:57;;;;;;;0.05;0.05;;;7.70;99.90;;;;;;5019398;28;20037;-80
2023/12/09 07:31:23;;;;;;;0.10;0.10;;;7.60;99.90;;;;;;5010450;28;20680;-80
2023/12/09 07:33:48;;;;;;;0.10;0.10;;;7.70;99.90;;;;;;5010089;28;20084;-81
2023/12/09 07:36:14;;;;;;;0.17;0.17;;;7.70;99.90;;;;;;5008933;28;20022;-81
2023/12/09 07:38:40;;;;;;;0.10;0.10;;;7.70;99.90;;;;;;5018335;28;20033;-81
2023/12/09 07:41:06;;;;;;;0.10;0.10;;;7.70;99.90;;;;;;5016224;28;20167;-81
2023/12/09 07:43:31;;;;;;;0.00;0.00;;;7.70;99.90;;;;;;5022037;28;20040;-81
2023/12/09 07:45:57;;;;;;;0.10;0.10;;;7.80;99.90;;;;;;5014531;28;20022;-81
2023/12/09 07:48:23;;;;;;;0.10;0.10;;;7.80;99.90;;;;;;5021549;28;20046;-82
2023/12/09 07:50:49;;;;;;;0.10;0.10;;;7.80;99.90;;;;;;5021224;28;20101;-81
2023/12/09 07:53:14;;;;;;;0.10;0.10;;;7.90;99.90;;;;;;5016806;28;20034;-81
2023/12/09 07:55:40;;;;;;;0.10;0.10;;;7.80;99.90;;;;;;5016786;28;20025;-82
2023/12/09 07:58:06;;;;;;;0.20;0.20;;;7.80;99.90;;;;;;5014181;28;20040;-82
2023/12/09 08:00:32;;;;;;;0.10;0.10;;;7.80;99.90;;;;;;5020175;28;20087;-81
2023/12/09 08:03:04;;;;;;;0.10;0.10;;;7.80;99.90;;;;;;5019313;28;20109;-81
2023/12/09 08:05:30;;;;;;;0.10;0.10;;;7.80;99.90;;;;;;5018903;28;20742;-80
2023/12/09 08:07:56;;;;;;;0.07;0.07;;;7.90;99.90;;;;;;5012890;28;20029;-81
2023/12/09 08:10:21;;;;;;;0.10;0.10;;;7.90;99.90;;;;;;5018242;28;20267;-82
2023/12/09 08:12:47;;;;;;;0.03;0.03;;;7.90;99.90;;;;;;5014113;28;20031;-81
2023/12/09 08:15:13;;;;;;;0.10;0.10;;;7.90;99.90;;;;;;5018959;28;20398;-80
2023/12/09 08:17:39;;;;;;;0.10;0.10;;;7.90;99.90;;;;;;5021698;28;20092;-80
2023/12/09 08:20:08;;;;;;;0.03;0.03;;;7.90;99.90;;;;;;5025361;28;20554;-79
2023/12/09 08:22:35;;;;;;;0.13;0.13;;;7.90;99.90;;;;;;5021819;28;20033;-79
2023/12/09 08:25:01;;;;;;;;;;;7.90;99.90;;;;;;5024029;28;20021;-78
2023/12/09 08:27:27;;;;;;;0.13;0.13;;;7.90;99.90;;;;;;5028507;28;20671;-78
2023/12/09 08:29:52;;;;;;;0.10;0.10;;;7.90;99.90;;;;;;5025433;28;20041;-77
2023/12/09 08:32:18;;;;;;;0.10;0.10;;;7.90;99.90;;;;;;5017629;28;20033;-78
2023/12/09 08:34:44;;;;;;;0.00;0.00;;;7.90;99.90;;;;;;5024303;28;20033;-78
2023/12/09 08:37:10;;;;;;;0.10;0.10;;;7.90;99.90;;;;;;5022894;28;20055;-78
2023/12/09 08:39:38;;;;;;;0.10;0.10;;;7.90;99.90;;;;;;5021399;28;20495;-79
2023/12/09 08:42:04;;;;;;;0.10;0.10;;;8.00;99.90;;;;;;5023916;28;20033;-79
2023/12/09 08:44:30;;;;;;;0.00;0.00;;;8.00;99.90;;;;;;5022912;28;20021;-79
2023/12/09 08:46:55;;;;;;;0.10;0.10;;;8.00;99.90;;;;;;5024599;28;20504;-81
2023/12/09 08:49:21;;;;;;;0.10;0.10;;;8.00;99.90;;;;;;5023588;28;20067;-81
2023/12/09 08:51:47;;;;;;;0.10;0.10;;;8.00;99.90;;;;;;5023913;28;20079;-81
2023/12/09 08:54:14;;;;;;;0.00;0.00;;;8.00;99.90;;;;;;5016941;28;20034;-81
2023/12/09 08:56:40;;;;;;;0.13;0.13;;;8.00;99.90;;;;;;5021618;28;20029;-82
2023/12/09 08:59:07;;;;;;;0.98;0.98;;;8.10;99.90;;;;;;5021650;28;20058;-80
2023/12/09 09:01:34;;;;;;;0.10;0.10;;;8.20;99.90;;;;;;5017874;28;20049;-81
2023/12/09 09:04:01;;;;;;;0.00;0.00;;;8.20;99.90;;;;;;5024395;28;20025;-81
2023/12/09 09:06:27;;;;;;;0.10;0.10;;;8.20;99.90;;;;;;5019990;28;20099;-81
2023/12/09 09:08:52;;;;;;;0.10;0.10;;;8.10;99.90;;;;;;5022714;28;20041;-80
2023/12/09 09:11:20;;;;;;;0.10;0.10;;;8.10;99.90;;;;;;5024618;28;20025;-81
2023/12/09 09:13:45;;;;;;;0.10;0.10;;;8.20;99.90;;;;;;5016556;28;20022;-82
2023/12/09 09:16:12;;;;;;;0.10;0.10;;;8.20;99.90;;;;;;5021544;28;20393;-81
2023/12/09 09:18:37;;;;;;;0.10;0.10;;;8.10;99.90;;;;;;5022856;28;20825;-82
2023/12/09 09:21:03;;;;;;;0.10;0.10;;;8.20;99.90;;;;;;5022569;28;20038;-79
2023/12/09 09:23:29;;;;;;;0.05;0.05;;;8.20;99.90;;;;;;5016802;28;20017;-82
2023/12/09 09:25:55;;;;;;;0.10;0.10;;;8.30;99.90;;;;;;5020462;28;20076;-79
2023/12/09 09:28:20;;;;;;;0.10;0.10;;;8.40;99.90;;;;;;5017913;28;20485;-79
2023/12/09 09:30:46;;;;;;;0.10;0.10;;;8.40;99.90;;;;;;5013950;28;20548;-79
2023/12/09 09:33:12;;;;;;;0.10;0.10;;;8.40;99.90;;;;;;5023126;28;20120;-80
2023/12/09 09:35:37;;;;;;;2.58;1.67;;;8.40;99.90;;;;;;5022049;28;20034;-79
2023/12/09 09:38:03;;;;;;;0.10;0.10;;;8.40;99.90;;;;;;5022796;28;20025;-80
2023/12/09 09:40:29;;;;;;;0.10;0.10;;;8.50;99.90;;;;;;5023505;28;20037;-79
2023/12/09 09:43:06;;;;;;;0.05;0.05;;;8.50;99.90;;;;;;5022505;28;20457;-80
2023/12/09 09:45:32;;;;;;;0.00;0.00;;;8.40;99.90;;;;;;5020494;28;20120;-80
2023/12/09 09:48:05;;;;;;;0.10;0.10;;;8.50;99.90;;;;;;5022457;28;20025;-80
2023/12/09 09:50:38;;;;;;;0.10;0.10;;;8.40;99.90;;;;;;5022220;28;20504;-79
2023/12/09 09:53:07;;;;;;;0.10;0.10;;;8.40;99.90;;;;;;5023557;28;20036;-80
2023/12/09 09:55:35;;;;;;;0.10;0.10;;;8.40;99.90;;;;;;5021005;28;20022;-80
2023/12/09 09:58:01;;;;;;;0.00;0.00;;;8.40;99.90;;;;;;5024721;28;20037;-79
2023/12/09 10:00:28;;;;;;;0.10;0.10;;;8.40;99.90;;;;;;5024226;28;20018;-81
2023/12/09 10:02:54;;;;;;;0.10;0.10;;;8.30;99.90;;;;;;5023606;28;20064;-80
2023/12/09 10:05:20;;;;;;;0.10;0.10;;;8.30;99.90;;;;;;5023040;28;20863;-80
2023/12/09 10:07:46;;;;;;;0.10;0.10;;;8.30;99.90;;;;;;5023613;28;20033;-78
2023/12/09 10:10:13;;;;;;;0.10;0.10;;;8.20;99.90;;;;;;5023098;28;20037;-80
2023/12/09 10:12:39;;;;;;;;;;;8.20;99.90;;;;;;5023100;28;20030;-81
2023/12/09 10:15:06;;;;;;;0.10;0.10;;;8.20;99.90;;;;;;5023491;28;19916;-81
2023/12/09 10:17:32;;;;;;;0.10;0.10;;;8.20;99.90;;;;;;5023445;28;20026;-80
2023/12/09 10:19:58;;;;;;;0.10;0.10;;;8.20;99.90;;;;;;5022931;28;20025;-80
2023/12/09 10:22:25;;;;;;;0.10;0.10;;;8.20;99.90;;;;;;5023362;28;20029;-78
2023/12/09 10:24:52;;;;;;;0.10;0.10;;;8.20;99.90;;;;;;5022744;28;20044;-78
2023/12/09 10:27:22;;;;;;;0.10;0.10;;;8.20;99.90;;;;;;5022434;28;20083;-80
2023/12/09 10:29:56;;;;;;;0.10;0.10;;;8.20;99.90;;;;;;5022623;28;20030;-80
2023/12/09 10:32:23;;;;;;;0.10;0.10;;;8.20;99.90;;;;;;5022663;28;20034;-80
2023/12/09 10:34:49;;;;;;;0.10;0.10;;;8.20;99.90;;;;;;5022764;28;20021;-80
2023/12/09 10:37:18;;;;;;;0.00;0.00;;;8.20;99.90;;;;;;5022875;28;20211;-80
2023/12/09 10:39:45;;;;;;;0.00;0.00;;;8.20;99.90;;;;;;5022837;28;20436;-81
2023/12/09 10:42:11;;;;;;;0.10;0.10;;;8.20;99.90;;;;;;5022383;28;20067;-78
2023/12/09 10:44:37;;;;;;;0.00;0.00;;;8.20;99.90;;;;;;5023050;28;20495;-79
2023/12/09 10:47:04;;;;;;;0.08;0.08;;;8.30;99.90;;;;;;5022428;28;20033;-79
2023/12/09 10:49:33;;;;;;;0.10;0.10;;;8.30;99.90;;;;;;5022963;28;20702;-79
2023/12/09 10:51:59;;;;;;;0.00;0.00;;;8.40;99.90;;;;;;5022483;28;20017;-79
2023/12/09 10:54:25;;;;;;;0.10;0.10;;;8.50;99.90;;;;;;5022373;28;20531;-78
2023/12/09 10:56:52;;;;;;;0.00;0.00;;;8.50;99.90;;;;;;5022344;28;20112;-80
2023/12/09 10:59:18;;;;;;;0.00;0.00;;;8.60;99.90;;;;;;5022591;28;20096;-81
2023/12/09 11:01:47;;;;;;;0.00;0.00;;;8.60;99.90;;;;;;5022223;28;20287;-80
2023/12/09 11:04:14;;;;;;;0.10;0.10;;;8.60;99.90;;;;;;5026181;28;20036;-79
2023/12/09 11:06:41;;;;;;;2.33;2.22;;;8.50;99.90;;;;;;5008791;28;20035;-80
2023/12/09 11:09:08;;;;;;;0.10;0.10;;;8.50;99.90;;;;;;5022332;28;20032;-79
2023/12/09 11:11:35;;;;;;;0.20;0.20;;;8.40;99.90;;;;;;5013624;28;20033;-82
2023/12/09 11:14:00;;;;;;;0.20;0.20;;;8.20;99.90;;;;;;5020341;28;20034;-81
2023/12/09 11:16:28;;;;;;;0.10;0.10;;;8.30;99.90;;;;;;5019670;28;20091;-81
2023/12/09 11:18:58;;;;;;;0.88;0.85;;;8.30;99.90;;;;;;5020682;28;20021;-81
2023/12/09 11:21:26;;;;;;;0.10;0.10;;;8.40;99.90;;;;;;5016497;28;20029;-81
2023/12/09 11:23:54;;;;;;;0.00;0.00;;;8.40;99.90;;;;;;5017503;28;20447;-80
2023/12/09 11:26:30;;;;;;;0.10;0.10;;;8.40;99.90;;;;;;5021957;28;20108;-80
2023/12/09 11:29:08;;;;;;;0.10;0.10;;;8.60;99.90;;;;;;5017396;28;20112;-76
2023/12/09 11:31:34;;;;;;;0.00;0.00;;;8.50;99.90;;;;;;5017938;28;20064;-77
2023/12/09 11:34:00;;;;;;;0.10;0.10;;;8.60;99.90;;;;;;5016065;28;20116;-77
2023/12/09 11:36:29;;;;;;;0.10;0.10;;;8.70;99.90;;;;;;5016284;28;20091;-77
2023/12/09 11:38:55;;;;;;;0.10;0.10;;;8.80;99.90;;;;;;5023960;28;20829;-80
2023/12/09 11:41:21;;;;;;;0.00;0.00;;;8.60;99.90;;;;;;5027124;28;20515;-81
2023/12/09 11:43:47;;;;;;;0.10;0.10;;;8.50;99.90;;;;;;5021125;28;20029;-81
2023/12/09 11:46:13;;;;;;;0.00;0.00;;;8.60;99.90;;;;;;5019868;28;20044;-81
2023/12/09 11:48:40;;;;;;;0.00;0.00;;;8.60;99.90;;;;;;5020247;28;20029;-79
2023/12/09 11:51:07;;;;;;;0.00;0.00;;;8.60;99.90;;;;;;5014919;28;20034;-81
2023/12/09 11:53:33;;;;;;;0.00;0.00;;;8.50;99.90;;;;;;5021131;28;20030;-81
2023/12/09 11:55:59;;;;;;;0.00;0.00;;;8.50;99.90;;;;;;5012331;28;20104;-81
2023/12/09 11:58:25;;;;;;;4.67;1.97;;;8.60;99.90;;;;;;5019254;28;20140;-80
2023/12/09 12:00:50;;;;;;;0.10;0.10;;;8.60;99.90;;;;;;5021628;28;20053;-81
2023/12/09 12:03:16;;;;;;;0.20;0.20;;;8.70;99.90;;;;;;5021409;28;20033;-80
2023/12/09 12:05:42;;;;;;;0.10;0.10;;;8.70;99.90;;;;;;5014793;28;20057;-80
2023/12/09 12:08:08;;;;;;;0.10;0.10;;;8.70;99.90;;;;;;5017312;28;20033;-81
2023/12/09 12:10:34;;;;;;;0.68;0.68;;;8.60;99.90;;;;;;5019274;28;20060;-81
2023/12/09 12:13:02;;;;;;;0.08;0.08;;;8.60;99.90;;;;;;5020229;28;20048;-81
2023/12/09 12:15:28;;;;;;;0.10;0.10;;;8.60;99.90;;;;;;5019643;28;20029;-80
2023/12/09 12:17:54;;;;;;;0.10;0.10;;;8.70;99.90;;;;;;5008551;28;20034;-80
2023/12/09 12:20:20;;;;;;;0.10;0.10;;;8.70;99.90;;;;;;5012586;28;20878;-80
2023/12/09 12:22:45;;;;;;;0.10;0.10;;;8.60;99.90;;;;;;5020905;28;20401;-80
2023/12/09 12:25:11;;;;;;;0.10;0.10;;;8.50;99.90;;;;;;5018419;28;20040;-81
2023/12/09 12:27:44;;;;;;;0.10;0.10;;;8.60;99.90;;;;;;5010304;28;20728;-80
2023/12/09 12:30:10;;;;;;;0.30;0.30;;;8.60;99.90;;;;;;5017396;28;20029;-80
2023/12/09 12:32:37;;;;;;;0.00;0.00;;;8.60;99.90;;;;;;5018581;28;20083;-80
2023/12/09 12:35:07;;;;;;;5.18;2.72;;;8.60;99.90;;;;;;5014092;28;20021;-80
2023/12/09 12:37:33;;;;;;;0.63;0.63;;;8.60;99.90;;;;;;5020409;28;20121;-81
2023/12/09 12:39:59;;;;;;;0.30;0.30;;;8.70;99.90;;;;;;5016634;28;20025;-81
2023/12/09 12:42:24;;;;;;;1.10;1.10;;;8.70;99.90;;;;;;5016163;28;20033;-79
2023/12/09 12:44:50;;;;;;;0.10;0.10;;;8.60;99.90;;;;;;5020080;28;20458;-79
2023/12/09 12:47:16;;;;;;;0.77;0.77;;;8.70;99.90;;;;;;5018808;28;20037;-80
2023/12/09 12:49:42;;;;;;;0.20;0.20;;;8.70;99.90;;;;;;5023398;28;20033;-81
2023/12/09 12:52:08;;;;;;;0.10;0.10;;;8.70;99.90;;;;;;5021223;28;20041;-81